sensor_id;sensor_type;location;lat;lon;timestamp;pressure;altitude;pressure_sealevel;temperature;humidity
21960;BME280;11144;43.030;25.108;2023-03-03T00:00:34;99522.91;;;7.16;100.00
21960;BME280;11144;43.030;25.108;2023-03-03T00:02:06;99517.63;;;7.18;100.00
21960;BME280;11144;43.030;25.108;2023-03-03T00:03:39;99516.78;;;7.16;100.00
21960;BME280;11144;43.030;25.108;2023-03-03T00:05:13;99513.28;;;7.13;100.00
21960;BME280;11144;43.030;25.108;2023-03-03T00:06:47;99515.16;;;7.08;100.00
21960;BME280;11144;43.030;25.108;2023-03-03T00:08:21;99502.91;;;7.07;100.00
21960;BME280;11144;43.030;25.108;2023-03-03T00:09:53;99507.31;;;7.05;100.00
21960;BME280;11144;43.030;25.108;2023-03-03T00:11:27;99509.94;;;7.05;100.00
21960;BME280;11144;43.030;25.108;2023-03-03T00:13:00;99501.25;;;7.03;100.00
21960;BME280;11144;43.030;25.108;2023-03-03T00:14:33;99507.31;;;7.05;100.00
21960;BME280;11144;43.030;25.108;2023-03-03T00:16:14;99498.66;;;7.00;100.00
21960;BME280;11144;43.030;25.108;2023-03-03T00:17:47;99493.34;;;7.05;100.00
21960;BME280;11144;43.030;25.108;2023-03-03T00:19:20;99500.34;;;7.04;100.00
21960;BME280;11144;43.030;25.108;2023-03-03T00:20:55;99495.09;;;7.04;100.00
21960;BME280;11144;43.030;25.108;2023-03-03T00:22:29;99495.88;;;7.08;100.00
21960;BME280;11144;43.030;25.108;2023-03-03T00:24:21;99487.97;;;7.09;100.00
21960;BME280;11144;43.030;25.108;2023-03-03T00:25:55;99487.97;;;7.09;100.00
21960;BME280;11144;43.030;25.108;2023-03-03T00:27:30;99476.63;;;7.07;100.00
21960;BME280;11144;43.030;25.108;2023-03-03T00:29:26;99479.25;;;7.07;100.00
21960;BME280;11144;43.030;25.108;2023-03-03T00:31:00;99485.41;;;7.07;100.00
21960;BME280;11144;43.030;25.108;2023-03-03T00:32:42;99473.09;;;7.08;100.00
21960;BME280;11144;43.030;25.108;2023-03-03T00:34:24;99464.44;;;7.03;100.00
21960;BME280;11144;43.030;25.108;2023-03-03T00:36:09;99465.22;;;7.08;100.00
21960;BME280;11144;43.030;25.108;2023-03-03T00:37:55;99462.63;;;7.05;100.00
21960;BME280;11144;43.030;25.108;2023-03-03T00:39:30;99474.00;;;7.07;100.00
21960;BME280;11144;43.030;25.108;2023-03-03T00:41:13;99466.97;;;7.08;100.00
21960;BME280;11144;43.030;25.108;2023-03-03T00:42:50;99459.94;;;7.08;100.00
21960;BME280;11144;43.030;25.108;2023-03-03T00:44:37;99445.13;;;7.04;100.00
21960;BME280;11144;43.030;25.108;2023-03-03T00:46:15;99439.78;;;7.11;100.00
21960;BME280;11144;43.030;25.108;2023-03-03T00:47:51;99440.63;;;7.11;100.00
21960;BME280;11144;43.030;25.108;2023-03-03T00:49:25;99440.56;;;7.14;100.00
21960;BME280;11144;43.030;25.108;2023-03-03T00:51:00;99441.44;;;7.15;100.00
21960;BME280;11144;43.030;25.108;2023-03-03T00:52:35;99429.22;;;7.12;100.00
21960;BME280;11144;43.030;25.108;2023-03-03T00:54:08;99418.81;;;7.06;100.00
21960;BME280;11144;43.030;25.108;2023-03-03T00:55:41;99436.25;;;7.12;100.00
21960;BME280;11144;43.030;25.108;2023-03-03T00:57:15;99432.75;;;7.09;100.00
21960;BME280;11144;43.030;25.108;2023-03-03T00:58:47;99428.44;;;7.07;100.00
21960;BME280;11144;43.030;25.108;2023-03-03T01:00:23;99431.09;;;7.05;100.00
21960;BME280;11144;43.030;25.108;2023-03-03T01:01:55;99420.72;;;6.99;100.00
21960;BME280;11144;43.030;25.108;2023-03-03T01:03:30;99436.34;;;7.05;100.00
21960;BME280;11144;43.030;25.108;2023-03-03T01:05:04;99427.59;;;7.07;100.00
21960;BME280;11144;43.030;25.108;2023-03-03T01:06:37;99426.66;;;7.09;100.00
21960;BME280;11144;43.030;25.108;2023-03-03T01:08:10;99424.09;;;7.06;100.00
21960;BME280;11144;43.030;25.108;2023-03-03T01:09:43;99424.00;;;7.11;100.00
21960;BME280;11144;43.030;25.108;2023-03-03T01:11:19;99429.25;;;7.11;100.00
21960;BME280;11144;43.030;25.108;2023-03-03T01:12:53;99427.50;;;7.09;100.00
21960;BME280;11144;43.030;25.108;2023-03-03T01:14:26;99418.97;;;6.98;100.00
21960;BME280;11144;43.030;25.108;2023-03-03T01:16:00;99421.44;;;7.06;100.00
21960;BME280;11144;43.030;25.108;2023-03-03T01:17:34;99427.69;;;7.00;100.00
21960;BME280;11144;43.030;25.108;2023-03-03T01:19:08;99432.06;;;7.01;100.00
21960;BME280;11144;43.030;25.108;2023-03-03T01:20:41;99418.84;;;7.04;100.00
21960;BME280;11144;43.030;25.108;2023-03-03T01:22:15;99424.00;;;7.11;100.00
21960;BME280;11144;43.030;25.108;2023-03-03T01:23:48;99416.09;;;7.12;100.00
21960;BME280;11144;43.030;25.108;2023-03-03T01:25:21;99422.13;;;7.16;100.00
21960;BME280;11144;43.030;25.108;2023-03-03T01:26:54;99412.50;;;7.16;100.00
21960;BME280;11144;43.030;25.108;2023-03-03T01:28:27;99415.16;;;7.15;100.00
21960;BME280;11144;43.030;25.108;2023-03-03T01:30:01;99415.16;;;7.15;100.00
21960;BME280;11144;43.030;25.108;2023-03-03T01:31:33;99405.47;;;7.15;100.00
21960;BME280;11144;43.030;25.108;2023-03-03T01:33:06;99422.16;;;7.14;100.00
21960;BME280;11144;43.030;25.108;2023-03-03T01:34:41;99410.75;;;7.13;100.00
21960;BME280;11144;43.030;25.108;2023-03-03T01:36:14;99413.34;;;7.17;100.00
21960;BME280;11144;43.030;25.108;2023-03-03T01:37:47;99408.97;;;7.16;100.00
21960;BME280;11144;43.030;25.108;2023-03-03T01:39:21;99404.56;;;7.18;100.00
21960;BME280;11144;43.030;25.108;2023-03-03T01:40:55;99405.38;;;7.20;100.00
21960;BME280;11144;43.030;25.108;2023-03-03T01:42:29;99404.47;;;7.21;100.00
21960;BME280;11144;43.030;25.108;2023-03-03T01:44:03;99409.84;;;7.18;100.00
21960;BME280;11144;43.030;25.108;2023-03-03T01:46:17;99409.84;;;7.18;100.00
21960;BME280;11144;43.030;25.108;2023-03-03T01:47:37;99404.56;;;7.18;100.00
21960;BME280;11144;43.030;25.108;2023-03-03T01:49:13;99406.59;;;7.05;100.00
21960;BME280;11144;43.030;25.108;2023-03-03T01:50:51;99399.53;;;7.05;100.00
21960;BME280;11144;43.030;25.108;2023-03-03T01:52:33;99397.78;;;7.07;100.00
21960;BME280;11144;43.030;25.108;2023-03-03T01:54:12;99402.97;;;7.11;100.00
21960;BME280;11144;43.030;25.108;2023-03-03T01:55:47;99395.91;;;7.13;100.00
21960;BME280;11144;43.030;25.108;2023-03-03T01:57:25;99401.09;;;7.16;100.00
21960;BME280;11144;43.030;25.108;2023-03-03T01:59:03;99401.09;;;7.16;100.00
21960;BME280;11144;43.030;25.108;2023-03-03T02:00:40;99399.22;;;7.21;100.00
21960;BME280;11144;43.030;25.108;2023-03-03T02:02:14;99397.50;;;7.20;100.00
21960;BME280;11144;43.030;25.108;2023-03-03T02:03:47;99397.56;;;7.17;100.00
21960;BME280;11144;43.030;25.108;2023-03-03T02:05:21;99399.38;;;7.15;100.00
21960;BME280;11144;43.030;25.108;2023-03-03T02:06:59;99398.56;;;7.11;100.00
21960;BME280;11144;43.030;25.108;2023-03-03T02:08:35;99394.22;;;7.08;100.00
21960;BME280;11144;43.030;25.108;2023-03-03T02:10:12;99389.03;;;7.05;100.00
21960;BME280;11144;43.030;25.108;2023-03-03T02:11:50;99394.25;;;7.07;100.00
21960;BME280;11144;43.030;25.108;2023-03-03T02:13:23;99397.78;;;7.07;100.00
21960;BME280;11144;43.030;25.108;2023-03-03T02:14:58;99400.38;;;7.09;100.00
21960;BME280;11144;43.030;25.108;2023-03-03T02:16:32;99397.78;;;7.07;100.00
21960;BME280;11144;43.030;25.108;2023-03-03T02:18:08;99396.84;;;7.10;100.00
21960;BME280;11144;43.030;25.108;2023-03-03T02:19:50;99395.06;;;7.12;100.00
21960;BME280;11144;43.030;25.108;2023-03-03T02:21:25;99396.81;;;7.12;100.00
21960;BME280;11144;43.030;25.108;2023-03-03T02:23:05;99399.38;;;7.15;100.00
21960;BME280;11144;43.030;25.108;2023-03-03T02:24:42;99403.72;;;7.16;100.00
21960;BME280;11144;43.030;25.108;2023-03-03T02:26:20;99402.97;;;7.11;100.00
21960;BME280;11144;43.030;25.108;2023-03-03T02:27:59;99402.97;;;7.11;100.00
21960;BME280;11144;43.030;25.108;2023-03-03T02:29:34;99406.47;;;7.09;100.00
21960;BME280;11144;43.030;25.108;2023-03-03T02:31:12;99415.22;;;7.12;100.00
21960;BME280;11144;43.030;25.108;2023-03-03T02:32:47;99404.69;;;7.12;100.00
21960;BME280;11144;43.030;25.108;2023-03-03T02:34:20;99408.28;;;7.07;100.00
21960;BME280;11144;43.030;25.108;2023-03-03T02:35:54;99403.09;;;7.04;100.00
21960;BME280;11144;43.030;25.108;2023-03-03T02:37:27;99395.19;;;7.04;100.00
21960;BME280;11144;43.030;25.108;2023-03-03T02:39:04;99396.91;;;7.05;100.00
21960;BME280;11144;43.030;25.108;2023-03-03T02:40:42;99395.44;;;6.94;100.00
21960;BME280;11144;43.030;25.108;2023-03-03T02:42:19;99398.19;;;6.86;100.00
21960;BME280;11144;43.030;25.108;2023-03-03T02:44:00;99400.81;;;6.86;100.00
21960;BME280;11144;43.030;25.108;2023-03-03T02:45:33;99395.56;;;6.86;100.00
21960;BME280;11144;43.030;25.108;2023-03-03T02:47:07;99403.44;;;6.86;100.00
21960;BME280;11144;43.030;25.108;2023-03-03T02:48:41;99398.19;;;6.86;100.00
21960;BME280;11144;43.030;25.108;2023-03-03T02:50:13;99400.75;;;6.89;100.00
21960;BME280;11144;43.030;25.108;2023-03-03T02:51:47;99396.47;;;6.85;100.00
21960;BME280;11144;43.030;25.108;2023-03-03T02:53:20;99403.44;;;6.86;100.00
21960;BME280;11144;43.030;25.108;2023-03-03T02:54:53;99413.16;;;6.83;100.00
21960;BME280;11144;43.030;25.108;2023-03-03T02:56:26;99403.50;;;6.83;100.00
21960;BME280;11144;43.030;25.108;2023-03-03T02:58:00;99414.91;;;6.82;100.00
21960;BME280;11144;43.030;25.108;2023-03-03T02:59:33;99412.28;;;6.82;100.00
21960;BME280;11144;43.030;25.108;2023-03-03T03:01:25;99414.16;;;6.77;100.00
21960;BME280;11144;43.030;25.108;2023-03-03T03:02:58;99405.41;;;6.75;100.00
21960;BME280;11144;43.030;25.108;2023-03-03T03:04:32;99405.41;;;6.77;100.00
21960;BME280;11144;43.030;25.108;2023-03-03T03:06:06;99403.56;;;6.80;100.00
21960;BME280;11144;43.030;25.108;2023-03-03T03:07:39;99417.53;;;6.82;100.00
21960;BME280;11144;43.030;25.108;2023-03-03T03:09:14;99406.13;;;6.83;100.00
21960;BME280;11144;43.030;25.108;2023-03-03T03:10:49;99405.31;;;6.81;100.00
21960;BME280;11144;43.030;25.108;2023-03-03T03:12:22;99406.16;;;6.82;100.00
21960;BME280;11144;43.030;25.108;2023-03-03T03:14:00;99402.69;;;6.81;100.00
21960;BME280;11144;43.030;25.108;2023-03-03T03:15:34;99413.22;;;6.80;100.00
21960;BME280;11144;43.030;25.108;2023-03-03T03:17:07;99415.81;;;6.81;100.00
21960;BME280;11144;43.030;25.108;2023-03-03T03:18:42;99412.34;;;6.79;100.00
21960;BME280;11144;43.030;25.108;2023-03-03T03:20:16;99408.81;;;6.80;100.00
21960;BME280;11144;43.030;25.108;2023-03-03T03:21:49;99408.03;;;6.75;100.00
21960;BME280;11144;43.030;25.108;2023-03-03T03:23:23;99410.72;;;6.72;100.00
21960;BME280;11144;43.030;25.108;2023-03-03T03:24:57;99410.69;;;6.75;100.00
21960;BME280;11144;43.030;25.108;2023-03-03T03:26:30;99402.78;;;6.75;100.00
21960;BME280;11144;43.030;25.108;2023-03-03T03:28:04;99405.38;;;6.78;100.00
21960;BME280;11144;43.030;25.108;2023-03-03T03:29:38;99404.44;;;6.81;100.00
21960;BME280;11144;43.030;25.108;2023-03-03T03:31:12;99391.31;;;6.79;100.00
21960;BME280;11144;43.030;25.108;2023-03-03T03:32:46;99398.38;;;6.77;100.00
21960;BME280;11144;43.030;25.108;2023-03-03T03:34:19;99401.06;;;6.74;100.00
21960;BME280;11144;43.030;25.108;2023-03-03T03:35:54;99388.78;;;6.75;100.00
21960;BME280;11144;43.030;25.108;2023-03-03T03:37:28;99379.16;;;6.75;100.00
21960;BME280;11144;43.030;25.108;2023-03-03T03:39:01;99385.22;;;6.79;100.00
21960;BME280;11144;43.030;25.108;2023-03-03T03:40:40;99401.00;;;6.79;100.00
21960;BME280;11144;43.030;25.108;2023-03-03T03:42:13;99379.16;;;6.75;100.00
21960;BME280;11144;43.030;25.108;2023-03-03T03:43:46;99379.41;;;6.63;100.00
21960;BME280;11144;43.030;25.108;2023-03-03T03:45:21;99388.19;;;6.62;100.00
21960;BME280;11144;43.030;25.108;2023-03-03T03:46:55;99382.94;;;6.62;100.00
21960;BME280;11144;43.030;25.108;2023-03-03T03:48:29;99391.69;;;6.60;100.00
21960;BME280;11144;43.030;25.108;2023-03-03T03:50:04;99385.50;;;6.64;100.00
21960;BME280;11144;43.030;25.108;2023-03-03T03:51:39;99387.22;;;6.66;100.00
21960;BME280;11144;43.030;25.108;2023-03-03T03:53:17;99377.59;;;6.65;100.00
21960;BME280;11144;43.030;25.108;2023-03-03T03:54:51;99372.41;;;6.62;100.00
21960;BME280;11144;43.030;25.108;2023-03-03T03:56:24;99384.66;;;6.63;100.00
21960;BME280;11144;43.030;25.108;2023-03-03T03:58:00;99377.59;;;6.65;100.00
21960;BME280;11144;43.030;25.108;2023-03-03T03:59:34;99370.59;;;6.64;100.00
21960;BME280;11144;43.030;25.108;2023-03-03T04:01:07;99375.88;;;6.64;100.00
21960;BME280;11144;43.030;25.108;2023-03-03T04:02:46;99372.47;;;6.59;100.00
21960;BME280;11144;43.030;25.108;2023-03-03T04:04:22;99371.72;;;6.53;100.00
21960;BME280;11144;43.030;25.108;2023-03-03T04:05:55;99369.03;;;6.54;100.00
21960;BME280;11144;43.030;25.108;2023-03-03T04:07:29;99368.19;;;6.55;100.00
21960;BME280;11144;43.030;25.108;2023-03-03T04:09:03;99374.25;;;6.57;100.00
21960;BME280;11144;43.030;25.108;2023-03-03T04:10:36;99365.50;;;6.58;100.00
21960;BME280;11144;43.030;25.108;2023-03-03T04:12:10;99367.22;;;6.59;100.00
21960;BME280;11144;43.030;25.108;2023-03-03T04:13:43;99359.38;;;6.58;100.00
21960;BME280;11144;43.030;25.108;2023-03-03T04:15:17;99360.25;;;6.58;100.00
21960;BME280;11144;43.030;25.108;2023-03-03T04:16:53;99367.28;;;6.56;100.00
21960;BME280;11144;43.030;25.108;2023-03-03T04:18:27;99368.16;;;6.57;100.00
21960;BME280;11144;43.030;25.108;2023-03-03T04:20:01;99355.09;;;6.52;100.00
21960;BME280;11144;43.030;25.108;2023-03-03T04:21:34;99369.94;;;6.55;100.00
21960;BME280;11144;43.030;25.108;2023-03-03T04:23:08;99364.66;;;6.55;100.00
21960;BME280;11144;43.030;25.108;2023-03-03T04:24:41;99363.75;;;6.57;100.00
21960;BME280;11144;43.030;25.108;2023-03-03T04:26:14;99365.50;;;6.58;100.00
21960;BME280;11144;43.030;25.108;2023-03-03T04:27:48;99373.38;;;6.58;100.00
21960;BME280;11144;43.030;25.108;2023-03-03T04:29:24;99365.50;;;6.58;100.00
21960;BME280;11144;43.030;25.108;2023-03-03T04:30:58;99368.94;;;6.60;100.00
21960;BME280;11144;43.030;25.108;2023-03-03T04:32:34;99369.00;;;6.57;100.00
21960;BME280;11144;43.030;25.108;2023-03-03T04:34:10;99372.56;;;6.53;100.00
21960;BME280;11144;43.030;25.108;2023-03-03T04:35:43;99365.59;;;6.52;100.00
21960;BME280;11144;43.030;25.108;2023-03-03T04:37:16;99368.19;;;6.54;100.00
21960;BME280;11144;43.030;25.108;2023-03-03T04:38:50;99366.41;;;6.54;100.00
21960;BME280;11144;43.030;25.108;2023-03-03T04:40:23;99373.44;;;6.55;100.00
21960;BME280;11144;43.030;25.108;2023-03-03T04:41:57;99369.94;;;6.53;100.00
21960;BME280;11144;43.030;25.108;2023-03-03T04:43:31;99368.25;;;6.51;100.00
21960;BME280;11144;43.030;25.108;2023-03-03T04:45:06;99376.16;;;6.49;100.00
21960;BME280;11144;43.030;25.108;2023-03-03T04:46:39;99368.22;;;6.52;100.00
21960;BME280;11144;43.030;25.108;2023-03-03T04:48:14;99376.06;;;6.55;100.00
21960;BME280;11144;43.030;25.108;2023-03-03T04:49:48;99376.81;;;6.60;100.00
21960;BME280;11144;43.030;25.108;2023-03-03T04:51:20;99372.47;;;6.59;100.00
21960;BME280;11144;43.030;25.108;2023-03-03T04:52:53;99376.16;;;6.49;100.00
21960;BME280;11144;43.030;25.108;2023-03-03T04:54:27;99378.78;;;6.49;100.00
21960;BME280;11144;43.030;25.108;2023-03-03T04:55:59;99376.16;;;6.49;100.00
21960;BME280;11144;43.030;25.108;2023-03-03T04:57:32;99378.75;;;6.51;100.00
21960;BME280;11144;43.030;25.108;2023-03-03T04:59:05;99379.56;;;6.54;100.00
21960;BME280;11144;43.030;25.108;2023-03-03T05:00:38;99375.16;;;6.56;100.00
21960;BME280;11144;43.030;25.108;2023-03-03T05:02:13;99376.06;;;6.55;100.00
21960;BME280;11144;43.030;25.108;2023-03-03T05:03:48;99387.41;;;6.56;100.00
21960;BME280;11144;43.030;25.108;2023-03-03T05:05:21;99383.03;;;6.56;100.00
21960;BME280;11144;43.030;25.108;2023-03-03T05:06:55;99391.69;;;6.61;100.00
21960;BME280;11144;43.030;25.108;2023-03-03T05:08:28;99384.69;;;6.60;100.00
21960;BME280;11144;43.030;25.108;2023-03-03T05:10:01;99391.75;;;6.58;100.00
21960;BME280;11144;43.030;25.108;2023-03-03T05:11:35;99381.31;;;6.55;100.00
21960;BME280;11144;43.030;25.108;2023-03-03T05:13:08;99387.41;;;6.56;100.00
21960;BME280;11144;43.030;25.108;2023-03-03T05:14:42;99383.03;;;6.56;100.00
21960;BME280;11144;43.030;25.108;2023-03-03T05:16:15;99388.28;;;6.56;100.00
21960;BME280;11144;43.030;25.108;2023-03-03T05:17:47;99384.88;;;6.51;100.00
21960;BME280;11144;43.030;25.108;2023-03-03T05:19:22;99382.13;;;6.57;100.00
21960;BME280;11144;43.030;25.108;2023-03-03T05:20:56;99386.50;;;6.58;100.00
21960;BME280;11144;43.030;25.108;2023-03-03T05:22:29;99386.56;;;6.55;100.00
21960;BME280;11144;43.030;25.108;2023-03-03T05:24:03;99397.00;;;6.58;100.00
21960;BME280;11144;43.030;25.108;2023-03-03T05:25:36;99389.97;;;6.60;100.00
21960;BME280;11144;43.030;25.108;2023-03-03T05:27:10;99393.47;;;6.59;100.00
21960;BME280;11144;43.030;25.108;2023-03-03T05:28:43;99395.25;;;6.57;100.00
21960;BME280;11144;43.030;25.108;2023-03-03T05:30:16;99391.81;;;6.55;100.00
21960;BME280;11144;43.030;25.108;2023-03-03T05:31:50;99386.63;;;6.52;100.00
21960;BME280;11144;43.030;25.108;2023-03-03T05:33:23;99391.88;;;6.52;100.00
21960;BME280;11144;43.030;25.108;2023-03-03T05:34:58;99386.56;;;6.55;100.00
21960;BME280;11144;43.030;25.108;2023-03-03T05:36:31;99388.34;;;6.53;100.00
21960;BME280;11144;43.030;25.108;2023-03-03T05:38:03;99381.25;;;6.58;100.00
21960;BME280;11144;43.030;25.108;2023-03-03T05:39:37;99390.84;;;6.59;100.00
21960;BME280;11144;43.030;25.108;2023-03-03T05:41:09;99389.97;;;6.60;100.00
21960;BME280;11144;43.030;25.108;2023-03-03T05:42:42;99394.28;;;6.63;100.00
21960;BME280;11144;43.030;25.108;2023-03-03T05:44:16;99393.44;;;6.62;100.00
21960;BME280;11144;43.030;25.108;2023-03-03T05:45:54;99392.59;;;6.60;100.00
21960;BME280;11144;43.030;25.108;2023-03-03T05:47:28;99388.28;;;6.56;100.00
21960;BME280;11144;43.030;25.108;2023-03-03T05:49:01;99390.06;;;6.54;100.00
21960;BME280;11144;43.030;25.108;2023-03-03T05:50:36;99391.81;;;6.55;100.00
21960;BME280;11144;43.030;25.108;2023-03-03T05:52:10;99388.28;;;6.56;100.00
21960;BME280;11144;43.030;25.108;2023-03-03T05:53:43;99392.66;;;6.56;100.00
21960;BME280;11144;43.030;25.108;2023-03-03T05:55:17;99393.59;;;6.53;100.00
21960;BME280;11144;43.030;25.108;2023-03-03T05:56:50;99390.00;;;6.57;100.00
21960;BME280;11144;43.030;25.108;2023-03-03T05:58:24;99387.31;;;6.60;100.00
21960;BME280;11144;43.030;25.108;2023-03-03T05:59:58;99389.03;;;6.63;100.00
21960;BME280;11144;43.030;25.108;2023-03-03T06:01:31;99389.97;;;6.59;100.00
21960;BME280;11144;43.030;25.108;2023-03-03T06:03:04;99387.25;;;6.65;100.00
21960;BME280;11144;43.030;25.108;2023-03-03T06:04:38;99389.75;;;6.69;100.00
21960;BME280;11144;43.030;25.108;2023-03-03T06:06:13;99382.69;;;6.74;100.00
21960;BME280;11144;43.030;25.108;2023-03-03T06:07:47;99380.81;;;6.79;100.00
21960;BME280;11144;43.030;25.108;2023-03-03T06:09:21;99382.47;;;6.83;100.00
21960;BME280;11144;43.030;25.108;2023-03-03T06:10:54;99381.56;;;6.86;100.00
21960;BME280;11144;43.030;25.108;2023-03-03T06:12:28;99375.44;;;6.85;100.00
21960;BME280;11144;43.030;25.108;2023-03-03T06:14:01;99385.91;;;6.88;100.00
21960;BME280;11144;43.030;25.108;2023-03-03T06:15:34;99389.25;;;6.96;100.00
21960;BME280;11144;43.030;25.108;2023-03-03T06:17:08;99385.59;;;7.03;100.00
21960;BME280;11144;43.030;25.108;2023-03-03T06:18:41;99383.72;;;7.08;100.00
21960;BME280;11144;43.030;25.108;2023-03-03T06:20:15;99388.91;;;7.12;100.00
21960;BME280;11144;43.030;25.108;2023-03-03T06:21:49;99384.44;;;7.15;100.00
21960;BME280;11144;43.030;25.108;2023-03-03T06:23:23;99380.06;;;7.16;100.00
21960;BME280;11144;43.030;25.108;2023-03-03T06:24:56;99383.53;;;7.18;100.00
21960;BME280;11144;43.030;25.108;2023-03-03T06:26:30;99385.19;;;7.22;100.00
21960;BME280;11144;43.030;25.108;2023-03-03T06:28:04;99385.06;;;7.28;100.00
21960;BME280;11144;43.030;25.108;2023-03-03T06:29:37;99377.13;;;7.29;100.00
21960;BME280;11144;43.030;25.108;2023-03-03T06:31:10;99376.19;;;7.32;100.00
21960;BME280;11144;43.030;25.108;2023-03-03T06:32:44;99385.75;;;7.36;100.00
21960;BME280;11144;43.030;25.108;2023-03-03T06:34:17;99383.09;;;7.37;100.00
21960;BME280;11144;43.030;25.108;2023-03-03T06:35:52;99384.78;;;7.40;100.00
21960;BME280;11144;43.030;25.108;2023-03-03T06:37:27;99387.31;;;7.44;100.00
21960;BME280;11144;43.030;25.108;2023-03-03T06:39:00;99387.22;;;7.49;100.00
21960;BME280;11144;43.030;25.108;2023-03-03T06:40:34;99389.00;;;7.47;100.00
21960;BME280;11144;43.030;25.108;2023-03-03T06:42:08;99389.72;;;7.55;100.00
21960;BME280;11144;43.030;25.108;2023-03-03T06:43:41;99386.19;;;7.56;100.00
21960;BME280;11144;43.030;25.108;2023-03-03T06:45:15;99379.25;;;7.52;100.00
21960;BME280;11144;43.030;25.108;2023-03-03T06:46:49;99391.50;;;7.53;100.00
21960;BME280;11144;43.030;25.108;2023-03-03T06:48:22;99384.53;;;7.52;100.00
21960;BME280;11144;43.030;25.108;2023-03-03T06:49:55;99388.03;;;7.51;100.00
21960;BME280;11144;43.030;25.108;2023-03-03T06:51:31;99385.34;;;7.54;100.00
21960;BME280;11144;43.030;25.108;2023-03-03T06:53:11;99393.09;;;7.60;100.00
21960;BME280;11144;43.030;25.108;2023-03-03T06:54:45;99387.91;;;7.57;100.00
21960;BME280;11144;43.030;25.108;2023-03-03T06:56:18;99384.28;;;7.61;100.00
21960;BME280;11144;43.030;25.108;2023-03-03T06:57:51;99386.28;;;7.51;100.00
21960;BME280;11144;43.030;25.108;2023-03-03T06:59:27;99382.78;;;7.51;100.00
21960;BME280;11144;43.030;25.108;2023-03-03T07:01:01;99382.00;;;7.47;100.00
21960;BME280;11144;43.030;25.108;2023-03-03T07:02:34;99382.78;;;7.51;100.00
21960;BME280;11144;43.030;25.108;2023-03-03T07:04:16;99387.22;;;7.49;100.00
21960;BME280;11144;43.030;25.108;2023-03-03T07:05:53;99388.88;;;7.53;100.00
21960;BME280;11144;43.030;25.108;2023-03-03T07:07:27;99388.72;;;7.60;100.00
21960;BME280;11144;43.030;25.108;2023-03-03T07:09:00;99386.88;;;7.64;100.00
21960;BME280;11144;43.030;25.108;2023-03-03T07:10:33;99382.50;;;7.63;100.00
21960;BME280;11144;43.030;25.108;2023-03-03T07:12:10;99389.50;;;7.64;100.00
21960;BME280;11144;43.030;25.108;2023-03-03T07:13:47;99385.00;;;7.67;100.00
21960;BME280;11144;43.030;25.108;2023-03-03T07:15:22;99387.53;;;7.72;100.00
21960;BME280;11144;43.030;25.108;2023-03-03T07:16:59;99390.94;;;7.77;100.00
21960;BME280;11144;43.030;25.108;2023-03-03T07:18:36;99382.91;;;7.83;100.00
21960;BME280;11144;43.030;25.108;2023-03-03T07:20:18;99386.34;;;7.86;100.00
21960;BME280;11144;43.030;25.108;2023-03-03T07:21:51;99376.59;;;7.90;100.00
21960;BME280;11144;43.030;25.108;2023-03-03T07:23:27;99378.22;;;7.94;100.00
21960;BME280;11144;43.030;25.108;2023-03-03T07:25:17;99374.63;;;7.98;100.00
21960;BME280;11144;43.030;25.108;2023-03-03T07:26:51;99372.03;;;7.96;100.00
21960;BME280;11144;43.030;25.108;2023-03-03T07:28:26;99370.50;;;7.88;100.00
21960;BME280;11144;43.030;25.108;2023-03-03T07:30:17;99371.69;;;7.75;100.00
21960;BME280;11144;43.030;25.108;2023-03-03T07:31:55;99371.91;;;7.66;100.00
21960;BME280;11144;43.030;25.108;2023-03-03T07:33:33;99358.22;;;7.52;100.00
21960;BME280;11144;43.030;25.108;2023-03-03T07:35:34;99363.53;;;7.49;100.00
21960;BME280;11144;43.030;25.108;2023-03-03T07:37:14;99364.44;;;7.48;100.00
21960;BME280;11144;43.030;25.108;2023-03-03T07:38:52;99365.13;;;7.56;100.00
21960;BME280;11144;43.030;25.108;2023-03-03T07:40:35;99366.66;;;7.66;100.00
21960;BME280;11144;43.030;25.108;2023-03-03T07:42:18;99366.56;;;7.69;100.00
21960;BME280;11144;43.030;25.108;2023-03-03T07:44:03;99365.72;;;7.68;100.00
21960;BME280;11144;43.030;25.108;2023-03-03T07:45:37;99362.03;;;7.75;100.00
21960;BME280;11144;43.030;25.108;2023-03-03T07:47:18;99360.94;;;7.84;100.00
21960;BME280;11144;43.030;25.108;2023-03-03T07:48:52;99362.69;;;7.85;100.00
21960;BME280;11144;43.030;25.108;2023-03-03T07:50:26;99357.34;;;7.88;100.00
21960;BME280;11144;43.030;25.108;2023-03-03T07:52:00;99362.69;;;7.85;100.00
21960;BME280;11144;43.030;25.108;2023-03-03T07:53:34;99361.00;;;7.82;100.00
21960;BME280;11144;43.030;25.108;2023-03-03T07:55:26;99359.97;;;7.88;100.00
21960;BME280;11144;43.030;25.108;2023-03-03T07:57:14;99357.16;;;7.94;100.00
21960;BME280;11144;43.030;25.108;2023-03-03T07:58:51;99360.66;;;7.96;100.00
21960;BME280;11144;43.030;25.108;2023-03-03T08:02:47;99362.31;;;8.00;100.00
21960;BME280;11144;43.030;25.108;2023-03-03T08:04:28;99362.13;;;8.06;100.00
21960;BME280;11144;43.030;25.108;2023-03-03T08:06:21;99361.25;;;8.07;100.00
21960;BME280;11144;43.030;25.108;2023-03-03T08:08:10;99362.06;;;8.09;100.00
21960;BME280;11144;43.030;25.108;2023-03-03T08:09:47;99358.47;;;8.11;100.00
21960;BME280;11144;43.030;25.108;2023-03-03T08:11:24;99358.38;;;8.16;100.00
21960;BME280;11144;43.030;25.108;2023-03-03T08:13:00;99349.44;;;8.23;100.00
21960;BME280;11144;43.030;25.108;2023-03-03T08:14:40;99354.56;;;8.29;100.00
21960;BME280;11144;43.030;25.108;2023-03-03T08:16:24;99345.75;;;8.30;100.00
21960;BME280;11144;43.030;25.108;2023-03-03T08:18:01;99345.75;;;8.30;100.00
21960;BME280;11144;43.030;25.108;2023-03-03T08:19:36;99346.34;;;8.39;100.00
21960;BME280;11144;43.030;25.108;2023-03-03T08:21:10;99344.44;;;8.44;100.00